CheckWX is a tool to help pilots better visualize weather data.  It is not intended as a substitute for an official pre-flight weather briefing.

01:10:43 UTC

KFNT TAF
Bishop International Airport
Flint, Michigan, USA
KFNT 192320Z 2000/2024 20012KT P6SM VCTS FEW035 BKN060CB OVC100 FM200100 22009KT P6SM SCT035 SCT250 FM200800 21006KT 6SM BR VCTS SCT040CB SCT250 FM201200 22012KT P6SM SCT035 SCT250 FM201800 22014G22KT P6SM BKN045 PROB30 2020/2024 2SM TSRA OVC030CB

Jul-20@
00:00 UTC

Jul-20 @ 00:00 UTC

Jul-20@
01:00 UTC

Jul-20 @ 01:00 UTC

KFNT 192320Z 2000/2024 20012KT P6SM VCTS FEW035 BKN060CB OVC100

Expired

Wind
  • 200° at 12 KTS
Conditions
Area Thunderstorm
Cloud Levels
  • Few at 3,500' AGL
  • Broken at 6,000' AGL
  • Overcast at 10,000' AGL

Jul-20@
01:00 UTC

Jul-20 @ 01:00 UTC

Jul-20@
08:00 UTC

Jul-20 @ 08:00 UTC

FM200100 22009KT P6SM SCT035 SCT250

From

From Standard forecast or significant change

Wind
  • 220° at 9 KTS
Cloud Levels
  • Scattered at 3,500' AGL
  • Scattered at 25,000' AGL

Jul-20@
08:00 UTC

Jul-20 @ 08:00 UTC

Jul-20@
12:00 UTC

Jul-20 @ 12:00 UTC

FM200800 21006KT 6SM BR VCTS SCT040CB SCT250

From

From Standard forecast or significant change

Wind
  • 210° at 6 KTS
Conditions
Mist, Area Thunderstorm
Cloud Levels
  • Scattered at 4,000' AGL
  • Scattered at 25,000' AGL

Jul-20@
12:00 UTC

Jul-20 @ 12:00 UTC

Jul-20@
18:00 UTC

Jul-20 @ 18:00 UTC

FM201200 22012KT P6SM SCT035 SCT250

From

From Standard forecast or significant change

Wind
  • 220° at 12 KTS
Cloud Levels
  • Scattered at 3,500' AGL
  • Scattered at 25,000' AGL

Jul-20@
18:00 UTC

Jul-20 @ 18:00 UTC

Jul-21@
00:00 UTC

Jul-21 @ 00:00 UTC

FM201800 22014G22KT P6SM BKN045

From

From Standard forecast or significant change

Wind
  • 220° at 14 KTS
  • {Gusting to 22 KTS
Cloud Levels
  • Broken at 4,500' AGL

Jul-20@
20:00 UTC

Jul-20 @ 20:00 UTC

Jul-21@
00:00 UTC

Jul-21 @ 00:00 UTC

PROB30 2020/2024 2SM TSRA OVC030CB

Probable - 30% Likelihood

Probable - 30% Likelihood during this time.

Conditions
Thunderstorm, Rain
Cloud Levels
  • Overcast at 3,000' AGL